createdAt,value
2022-11-12T00:03:22.171Z,4.97
2022-11-12T00:08:42.850Z,4.97
2022-11-12T00:14:07.909Z,4.94
2022-11-12T00:19:28.557Z,4.91
2022-11-12T00:24:49.653Z,4.88
2022-11-12T00:30:11.189Z,4.84
2022-11-12T00:35:33.046Z,4.74
2022-11-12T00:40:53.448Z,4.69
2022-11-12T00:46:14.431Z,4.72
2022-11-12T00:51:36.067Z,4.68
2022-11-12T00:56:57.138Z,4.57
2022-11-12T01:02:17.552Z,4.49
2022-11-12T01:07:38.135Z,4.53
2022-11-12T01:12:58.544Z,4.55
2022-11-12T01:18:19.040Z,4.42
2022-11-12T01:23:41.603Z,4.34
2022-11-12T01:29:02.065Z,4.24
2022-11-12T01:34:22.793Z,4.26
2022-11-12T01:39:43.399Z,4.19
2022-11-12T01:45:15.990Z,4.14
2022-11-12T01:50:38.970Z,4.26
2022-11-12T01:56:02.671Z,4.24
2022-11-12T02:01:23.456Z,4.19
2022-11-12T02:06:45.858Z,4.17
2022-11-12T02:12:06.862Z,4.07
2022-11-12T02:17:27.686Z,4.06
2022-11-12T02:22:48.528Z,4.00
2022-11-12T02:28:08.921Z,3.93
2022-11-12T02:33:29.641Z,3.89
2022-11-12T02:38:50.772Z,3.82
2022-11-12T02:44:11.589Z,3.75
2022-11-12T02:49:32.104Z,3.65
2022-11-12T02:54:53.125Z,3.57
2022-11-12T03:00:14.564Z,3.54
2022-11-12T03:05:36.187Z,3.46
2022-11-12T03:10:56.926Z,3.30
2022-11-12T03:16:17.180Z,3.27
2022-11-12T03:21:37.209Z,3.21
2022-11-12T03:26:58.059Z,3.18
2022-11-12T03:32:18.878Z,3.11
2022-11-12T03:37:39.803Z,3.16
2022-11-12T03:43:00.520Z,3.18
2022-11-12T03:48:21.245Z,3.19
2022-11-12T03:53:42.429Z,3.14
2022-11-12T03:59:03.244Z,3.07
2022-11-12T04:04:23.703Z,3.00
2022-11-12T04:09:44.528Z,2.96
2022-11-12T04:15:05.862Z,3.00
2022-11-12T04:20:45.005Z,2.83
2022-11-12T04:26:23.958Z,2.77
2022-11-12T04:31:44.718Z,2.72
2022-11-12T04:37:06.422Z,2.70
2022-11-12T04:42:45.878Z,2.59
2022-11-12T04:48:06.349Z,2.53
2022-11-12T04:53:27.728Z,2.47
2022-11-12T04:58:48.759Z,2.33
2022-11-12T05:04:09.486Z,2.38
2022-11-12T05:09:30.393Z,2.41
2022-11-12T05:14:51.010Z,2.29
2022-11-12T05:20:13.405Z,2.16
2022-11-12T05:25:35.440Z,2.10
2022-11-12T05:30:56.136Z,2.14
2022-11-12T05:36:17.062Z,2.15
2022-11-12T05:42:05.856Z,2.08
2022-11-12T05:47:18.642Z,2.03
2022-11-12T05:52:38.985Z,2.06
2022-11-12T05:58:04.910Z,2.03
2022-11-12T06:03:30.030Z,2.05
2022-11-12T06:08:50.560Z,2.09
2022-11-12T06:14:10.878Z,2.10
2022-11-12T06:19:31.386Z,2.15
2022-11-12T06:24:52.001Z,2.23
2022-11-12T06:30:13.229Z,2.40
2022-11-12T06:35:33.949Z,2.48
2022-11-12T06:40:54.873Z,2.64
2022-11-12T06:46:17.133Z,2.84
2022-11-12T06:51:39.818Z,3.05
2022-11-12T06:57:01.240Z,3.31
2022-11-12T07:02:21.948Z,3.56
2022-11-12T07:07:42.975Z,3.86
2022-11-12T07:13:03.889Z,4.15
2022-11-12T07:18:25.105Z,4.42
2022-11-12T07:23:47.379Z,4.70
2022-11-12T07:29:07.726Z,4.92
2022-11-12T07:34:28.067Z,5.15
2022-11-12T07:39:48.626Z,5.39
2022-11-12T07:45:10.062Z,5.62
2022-11-12T07:50:30.671Z,5.79
2022-11-12T07:56:13.208Z,5.97
2022-11-12T08:01:37.619Z,6.14
2022-11-12T08:06:58.520Z,6.35
2022-11-12T08:12:19.354Z,6.59
2022-11-12T08:17:40.227Z,6.80
2022-11-12T08:23:01.011Z,7.04
2022-11-12T08:28:21.423Z,7.30
2022-11-12T08:33:43.152Z,7.62
2022-11-12T08:39:04.076Z,7.93
2022-11-12T08:44:24.698Z,8.21
2022-11-12T08:49:48.034Z,8.48
2022-11-12T08:55:09.411Z,8.78
2022-11-12T09:00:32.756Z,9.01
2022-11-12T09:05:54.331Z,9.24
2022-11-12T09:11:14.949Z,9.47
2022-11-12T09:16:35.771Z,9.76
2022-11-12T09:21:56.242Z,10.07
2022-11-12T09:27:16.893Z,10.31
2022-11-12T09:32:37.823Z,10.47
2022-11-12T09:37:59.529Z,10.72
2022-11-12T09:43:27.654Z,10.83
2022-11-12T09:48:55.680Z,10.98
2022-11-12T09:54:26.810Z,11.42
2022-11-12T09:59:47.220Z,11.75
2022-11-12T10:05:34.670Z,11.99
2022-11-12T10:11:24.368Z,12.39
2022-11-12T10:16:53.994Z,12.63
2022-11-12T10:22:39.496Z,12.95
2022-11-12T10:28:06.084Z,13.05
2022-11-12T10:33:31.400Z,13.18
2022-11-12T10:38:54.463Z,13.38
2022-11-12T10:44:15.206Z,13.94
2022-11-12T10:49:35.991Z,14.34
2022-11-12T10:55:07.444Z,14.68
2022-11-12T11:00:27.975Z,14.59
2022-11-12T11:05:54.116Z,14.39
2022-11-12T11:11:28.641Z,14.55
2022-11-12T11:17:01.984Z,14.63
2022-11-12T11:22:45.944Z,14.76
2022-11-12T11:28:45.372Z,14.53
2022-11-12T11:34:20.425Z,14.17
2022-11-12T11:40:11.664Z,14.35
2022-11-12T11:46:07.959Z,14.43
2022-11-12T11:51:49.927Z,14.62
2022-11-12T11:57:23.345Z,14.61
2022-11-12T12:02:52.511Z,14.96
2022-11-12T12:08:25.921Z,15.14
2022-11-12T12:13:46.494Z,14.86
2022-11-12T12:19:38.139Z,15.07
2022-11-12T12:25:19.654Z,15.11
2022-11-12T12:30:43.128Z,15.04
2022-11-12T12:36:25.045Z,14.93
2022-11-12T12:41:57.350Z,14.99
2022-11-12T12:47:19.492Z,15.16
2022-11-12T12:52:59.354Z,15.14
2022-11-12T12:58:27.926Z,14.78
2022-11-12T13:03:58.820Z,14.64
2022-11-12T13:09:19.413Z,14.77
2022-11-12T13:14:40.459Z,14.62
2022-11-12T13:20:03.846Z,14.53
2022-11-12T13:25:27.644Z,14.53
2022-11-12T13:30:47.941Z,14.39
2022-11-12T13:36:26.871Z,14.24
2022-11-12T13:42:34.919Z,14.25
2022-11-12T13:47:58.425Z,14.25
2022-11-12T13:53:27.766Z,14.12
2022-11-12T13:59:15.784Z,13.97
2022-11-12T14:05:18.503Z,14.12
2022-11-12T14:10:54.475Z,14.07
2022-11-12T14:17:01.467Z,13.79
2022-11-12T14:22:22.490Z,13.62
2022-11-12T14:27:43.619Z,13.35
2022-11-12T14:33:11.307Z,13.20
2022-11-12T14:38:38.405Z,12.92
2022-11-12T14:44:12.581Z,12.70
2022-11-12T14:49:54.624Z,12.42
2022-11-12T14:55:23.230Z,12.14
2022-11-12T15:00:46.351Z,11.76
2022-11-12T15:06:06.922Z,11.36
2022-11-12T15:11:47.711Z,11.00
2022-11-12T15:17:33.926Z,10.60
2022-11-12T15:22:55.056Z,10.19
2022-11-12T15:28:23.659Z,9.84
2022-11-12T15:33:44.376Z,9.51
2022-11-12T15:39:13.298Z,9.17
2022-11-12T15:44:37.269Z,8.80
2022-11-12T15:49:59.276Z,8.50
2022-11-12T15:55:19.955Z,8.16
2022-11-12T16:00:40.652Z,7.67
2022-11-12T16:06:07.208Z,7.08
2022-11-12T16:11:38.290Z,6.68
2022-11-12T16:16:59.098Z,6.36
2022-11-12T16:22:19.725Z,6.13
2022-11-12T16:27:40.961Z,5.78
2022-11-12T16:33:02.189Z,5.50
2022-11-12T16:38:23.468Z,5.48
2022-11-12T16:43:44.243Z,5.29
2022-11-12T16:49:04.657Z,5.28
2022-11-12T16:54:25.166Z,5.00
2022-11-12T16:59:45.783Z,4.67
2022-11-12T17:05:15.615Z,4.45
2022-11-12T17:10:36.543Z,4.15
2022-11-12T17:15:58.223Z,3.91
2022-11-12T17:21:19.723Z,3.74
2022-11-12T17:26:40.742Z,3.57
2022-11-12T17:32:01.672Z,3.36
2022-11-12T17:37:22.287Z,3.17
2022-11-12T17:42:43.001Z,2.98
2022-11-12T17:48:04.064Z,2.75
2022-11-12T17:53:24.778Z,2.47
2022-11-12T17:58:46.184Z,2.23
2022-11-12T18:04:06.806Z,2.26
2022-11-12T18:09:27.723Z,2.13
2022-11-12T18:14:48.555Z,2.13
2022-11-12T18:20:09.998Z,2.39
2022-11-12T18:25:30.604Z,2.62
2022-11-12T18:30:51.525Z,2.79
2022-11-12T18:36:15.242Z,2.94
2022-11-12T18:41:35.732Z,3.08
2022-11-12T18:46:56.346Z,3.15
2022-11-12T18:52:17.375Z,3.19
2022-11-12T18:57:37.987Z,3.21
2022-11-12T19:02:58.296Z,3.22
2022-11-12T19:08:19.429Z,3.38
2022-11-12T19:13:40.981Z,3.47
2022-11-12T19:19:02.196Z,3.51
2022-11-12T19:24:22.914Z,3.57
2022-11-12T19:29:43.686Z,3.58
2022-11-12T19:35:04.863Z,3.43
2022-11-12T19:40:25.685Z,3.21
2022-11-12T19:45:46.033Z,3.10
2022-11-12T19:51:08.553Z,3.06
2022-11-12T19:56:30.634Z,3.12
2022-11-12T20:01:51.326Z,3.32
2022-11-12T20:07:11.967Z,3.49
2022-11-12T20:12:33.220Z,3.63
2022-11-12T20:18:04.440Z,3.82
2022-11-12T20:23:26.313Z,4.02
2022-11-12T20:28:47.621Z,4.24
2022-11-12T20:34:08.941Z,4.35
2022-11-12T20:39:29.675Z,4.36
2022-11-12T20:44:50.187Z,4.37
2022-11-12T20:50:11.114Z,4.36
2022-11-12T20:55:32.849Z,4.40
2022-11-12T21:00:53.510Z,4.46
2022-11-12T21:06:26.139Z,4.50
2022-11-12T21:11:46.787Z,4.52
2022-11-12T21:17:07.873Z,4.55
2022-11-12T21:22:28.733Z,4.44
2022-11-12T21:27:49.245Z,4.55
2022-11-12T21:33:09.769Z,4.61
2022-11-12T21:38:30.761Z,4.59
2022-11-12T21:43:51.635Z,4.63
2022-11-12T21:49:12.022Z,4.71
2022-11-12T21:54:32.842Z,4.82
2022-11-12T21:59:53.462Z,4.84
2022-11-12T22:05:24.419Z,4.85
2022-11-12T22:10:45.165Z,4.86
2022-11-12T22:16:13.537Z,4.92
2022-11-12T22:21:39.451Z,4.97
2022-11-12T22:27:05.193Z,4.96
2022-11-12T22:32:28.455Z,5.03
2022-11-12T22:37:48.932Z,5.03
2022-11-12T22:43:09.216Z,5.05
2022-11-12T22:48:30.196Z,5.08
2022-11-12T22:53:58.784Z,5.10
2022-11-12T22:59:18.949Z,5.16
2022-11-12T23:04:39.569Z,5.18
2022-11-12T23:09:59.877Z,5.17
2022-11-12T23:15:20.481Z,5.16
2022-11-12T23:20:40.802Z,5.17
2022-11-12T23:26:14.728Z,5.18
2022-11-12T23:31:35.326Z,5.18
2022-11-12T23:36:55.863Z,5.15
2022-11-12T23:42:16.275Z,5.07
2022-11-12T23:47:36.994Z,5.00
2022-11-12T23:52:57.814Z,4.91
2022-11-12T23:58:18.745Z,4.93
